sensor_id;sensor_type;location;lat;lon;timestamp;pressure;altitude;pressure_sealevel;temperature;humidity
43701;BME280;58809;47.984;7.964;2023-03-04T00:00:43;97683.59;;;-0.31;100.00
43701;BME280;58809;47.984;7.964;2023-03-04T00:03:46;97687.44;;;-0.36;100.00
43701;BME280;58809;47.984;7.964;2023-03-04T00:06:48;97687.53;;;-0.38;100.00
43701;BME280;58809;47.984;7.964;2023-03-04T00:09:49;97677.50;;;-0.44;100.00
43701;BME280;58809;47.984;7.964;2023-03-04T00:12:51;97686.47;;;-0.48;100.00
43701;BME280;58809;47.984;7.964;2023-03-04T00:15:52;97684.03;;;-0.51;100.00
43701;BME280;58809;47.984;7.964;2023-03-04T00:18:55;97685.72;;;-0.50;100.00
43701;BME280;58809;47.984;7.964;2023-03-04T00:21:57;97692.78;;;-0.52;100.00
43701;BME280;58809;47.984;7.964;2023-03-04T00:24:58;97689.75;;;-0.59;100.00
43701;BME280;58809;47.984;7.964;2023-03-04T00:28:00;97692.06;;;-0.54;100.00
43701;BME280;58809;47.984;7.964;2023-03-04T00:31:01;97684.28;;;-0.54;100.00
43701;BME280;58809;47.984;7.964;2023-03-04T00:34:03;97683.72;;;-0.60;100.00
43701;BME280;58809;47.984;7.964;2023-03-04T00:37:04;97695.69;;;-0.57;100.00
43701;BME280;58809;47.984;7.964;2023-03-04T00:40:06;97695.31;;;-0.51;100.00
43701;BME280;58809;47.984;7.964;2023-03-04T00:43:08;97699.03;;;-0.55;100.00
43701;BME280;58809;47.984;7.964;2023-03-04T00:46:10;97702.84;;;-0.61;100.00
43701;BME280;58809;47.984;7.964;2023-03-04T00:49:11;97699.09;;;-0.69;100.00
43701;BME280;58809;47.984;7.964;2023-03-04T00:52:13;97695.41;;;-0.80;100.00
43701;BME280;58809;47.984;7.964;2023-03-04T00:55:14;97699.63;;;-0.91;100.00
43701;BME280;58809;47.984;7.964;2023-03-04T00:58:16;97689.25;;;-0.91;100.00
43701;BME280;58809;47.984;7.964;2023-03-04T01:01:17;97691.28;;;-0.97;100.00
43701;BME280;58809;47.984;7.964;2023-03-04T01:04:19;97694.22;;;-0.88;100.00
43701;BME280;58809;47.984;7.964;2023-03-04T01:07:20;97690.88;;;-0.90;100.00
43701;BME280;58809;47.984;7.964;2023-03-04T01:10:22;97677.34;;;-0.95;100.00
43701;BME280;58809;47.984;7.964;2023-03-04T01:13:23;97686.63;;;-0.91;100.00
43701;BME280;58809;47.984;7.964;2023-03-04T01:16:25;97685.16;;;-0.95;100.00
43701;BME280;58809;47.984;7.964;2023-03-04T01:19:27;97672.84;;;-1.06;100.00
43701;BME280;58809;47.984;7.964;2023-03-04T01:22:29;97684.00;;;-1.19;100.00
43701;BME280;58809;47.984;7.964;2023-03-04T01:25:30;97681.41;;;-1.19;100.00
43701;BME280;58809;47.984;7.964;2023-03-04T01:28:32;97686.59;;;-1.19;100.00
43701;BME280;58809;47.984;7.964;2023-03-04T01:31:36;97682.53;;;-1.23;100.00
43701;BME280;58809;47.984;7.964;2023-03-04T01:34:37;97677.13;;;-1.20;100.00
43701;BME280;58809;47.984;7.964;2023-03-04T01:37:39;97669.84;;;-1.27;100.00
43701;BME280;58809;47.984;7.964;2023-03-04T01:40:40;97673.47;;;-1.30;100.00
43701;BME280;58809;47.984;7.964;2023-03-04T01:43:42;97674.47;;;-1.32;100.00
43701;BME280;58809;47.984;7.964;2023-03-04T01:46:48;97671.22;;;-1.36;100.00
43701;BME280;58809;47.984;7.964;2023-03-04T01:49:53;97667.06;;;-1.39;100.00
43701;BME280;58809;47.984;7.964;2023-03-04T01:52:55;97663.91;;;-1.44;100.00
43701;BME280;58809;47.984;7.964;2023-03-04T01:56:04;97660.41;;;-1.43;100.00
43701;BME280;58809;47.984;7.964;2023-03-04T01:59:14;97652.44;;;-1.54;100.00
43701;BME280;58809;47.984;7.964;2023-03-04T02:02:17;97656.72;;;-1.53;100.00
43701;BME280;58809;47.984;7.964;2023-03-04T02:05:20;97653.47;;;-1.57;100.00
43701;BME280;58809;47.984;7.964;2023-03-04T02:08:23;97653.38;;;-1.55;100.00
43701;BME280;58809;47.984;7.964;2023-03-04T02:11:25;97657.63;;;-1.54;100.00
43701;BME280;58809;47.984;7.964;2023-03-04T02:14:27;97652.72;;;-1.59;100.00
43701;BME280;58809;47.984;7.964;2023-03-04T02:17:31;97653.72;;;-1.61;100.00
43701;BME280;58809;47.984;7.964;2023-03-04T02:27:13;97654.69;;;-1.62;100.00
43701;BME280;58809;47.984;7.964;2023-03-04T02:30:16;97647.44;;;-1.57;100.00
43701;BME280;58809;47.984;7.964;2023-03-04T02:33:18;97656.53;;;-1.64;100.00
43701;BME280;58809;47.984;7.964;2023-03-04T02:36:20;97653.00;;;-1.63;100.00
43701;BME280;58809;47.984;7.964;2023-03-04T02:42:30;97650.31;;;-1.76;100.00
43701;BME280;58809;47.984;7.964;2023-03-04T02:48:45;97649.88;;;-1.83;100.00
43701;BME280;58809;47.984;7.964;2023-03-04T02:51:49;97642.44;;;-1.89;100.00
43701;BME280;58809;47.984;7.964;2023-03-04T02:54:51;97653.47;;;-1.85;100.00
43701;BME280;58809;47.984;7.964;2023-03-04T02:57:53;97655.53;;;-1.90;100.00
43701;BME280;58809;47.984;7.964;2023-03-04T03:00:54;97658.00;;;-1.89;100.00
43701;BME280;58809;47.984;7.964;2023-03-04T03:03:58;97657.19;;;-1.89;100.00
43701;BME280;58809;47.984;7.964;2023-03-04T03:06:59;97651.50;;;-1.96;100.00
43701;BME280;58809;47.984;7.964;2023-03-04T03:10:01;97655.06;;;-1.97;100.00
43701;BME280;58809;47.984;7.964;2023-03-04T03:13:03;97652.53;;;-1.99;100.00
43701;BME280;58809;47.984;7.964;2023-03-04T03:16:05;97653.91;;;-2.07;100.00
43701;BME280;58809;47.984;7.964;2023-03-04T03:19:06;97656.50;;;-2.07;100.00
43701;BME280;58809;47.984;7.964;2023-03-04T03:22:09;97652.53;;;-2.13;100.00
43701;BME280;58809;47.984;7.964;2023-03-04T03:25:11;97664.00;;;-2.17;100.00
43701;BME280;58809;47.984;7.964;2023-03-04T03:28:13;97663.16;;;-2.32;99.91
43701;BME280;58809;47.984;7.964;2023-03-04T03:31:14;97654.88;;;-2.39;100.00
43701;BME280;58809;47.984;7.964;2023-03-04T03:34:20;97657.97;;;-2.32;100.00
43701;BME280;58809;47.984;7.964;2023-03-04T03:37:22;97656.94;;;-2.29;100.00
43701;BME280;58809;47.984;7.964;2023-03-04T03:40:23;97663.25;;;-2.34;100.00
43701;BME280;58809;47.984;7.964;2023-03-04T03:43:24;97658.13;;;-2.35;100.00
43701;BME280;58809;47.984;7.964;2023-03-04T03:46:26;97659.53;;;-2.29;100.00
43701;BME280;58809;47.984;7.964;2023-03-04T03:49:27;97667.31;;;-2.29;100.00
43701;BME280;58809;47.984;7.964;2023-03-04T03:52:29;97654.66;;;-2.20;100.00
43701;BME280;58809;47.984;7.964;2023-03-04T03:55:30;97656.69;;;-2.25;100.00
43701;BME280;58809;47.984;7.964;2023-03-04T03:58:32;97656.69;;;-2.25;100.00
43701;BME280;58809;47.984;7.964;2023-03-04T04:01:33;97659.63;;;-2.31;100.00
43701;BME280;58809;47.984;7.964;2023-03-04T04:04:35;97666.84;;;-2.36;100.00
43701;BME280;58809;47.984;7.964;2023-03-04T04:07:36;97669.44;;;-2.36;100.00
43701;BME280;58809;47.984;7.964;2023-03-04T04:10:37;97665.34;;;-2.40;100.00
43701;BME280;58809;47.984;7.964;2023-03-04T04:13:39;97660.53;;;-2.46;100.00
43701;BME280;58809;47.984;7.964;2023-03-04T04:16:40;97662.47;;;-2.50;100.00
43701;BME280;58809;47.984;7.964;2023-03-04T04:19:42;97668.88;;;-2.41;100.00
43701;BME280;58809;47.984;7.964;2023-03-04T04:22:43;97672.66;;;-2.47;100.00
43701;BME280;58809;47.984;7.964;2023-03-04T04:25:45;97670.31;;;-2.52;100.00
43701;BME280;58809;47.984;7.964;2023-03-04T04:28:46;97667.88;;;-2.55;100.00
43701;BME280;58809;47.984;7.964;2023-03-04T04:31:48;97660.31;;;-2.58;100.00
43701;BME280;58809;47.984;7.964;2023-03-04T04:34:49;97666.50;;;-2.60;100.00
43701;BME280;58809;47.984;7.964;2023-03-04T04:37:51;97665.66;;;-2.61;100.00
43701;BME280;58809;47.984;7.964;2023-03-04T04:40:52;97669.94;;;-2.60;100.00
43701;BME280;58809;47.984;7.964;2023-03-04T04:43:53;97668.63;;;-2.67;100.00
43701;BME280;58809;47.984;7.964;2023-03-04T04:46:55;97666.19;;;-2.70;100.00
43701;BME280;58809;47.984;7.964;2023-03-04T04:49:56;97672.19;;;-2.69;100.00
43701;BME280;58809;47.984;7.964;2023-03-04T04:52:58;97664.34;;;-2.68;100.00
43701;BME280;58809;47.984;7.964;2023-03-04T04:55:59;97671.44;;;-2.72;99.92
43701;BME280;58809;47.984;7.964;2023-03-04T04:59:02;97672.78;;;-2.80;99.80
43701;BME280;58809;47.984;7.964;2023-03-04T05:02:04;97674.13;;;-2.73;100.00
43701;BME280;58809;47.984;7.964;2023-03-04T05:05:06;97667.38;;;-2.76;99.78
43701;BME280;58809;47.984;7.964;2023-03-04T05:08:07;97668.19;;;-2.75;99.70
43701;BME280;58809;47.984;7.964;2023-03-04T05:11:08;97665.53;;;-2.74;100.00
43701;BME280;58809;47.984;7.964;2023-03-04T05:14:10;97665.44;;;-2.72;100.00
43701;BME280;58809;47.984;7.964;2023-03-04T05:17:11;97661.75;;;-2.68;100.00
43701;BME280;58809;47.984;7.964;2023-03-04T05:20:13;97661.84;;;-2.69;100.00
43701;BME280;58809;47.984;7.964;2023-03-04T05:23:14;97658.69;;;-2.75;100.00
43701;BME280;58809;47.984;7.964;2023-03-04T05:26:16;97666.13;;;-2.84;99.92
43701;BME280;58809;47.984;7.964;2023-03-04T05:29:17;97669.38;;;-2.81;100.00
43701;BME280;58809;47.984;7.964;2023-03-04T05:32:19;97670.31;;;-2.82;100.00
43701;BME280;58809;47.984;7.964;2023-03-04T05:35:20;97673.00;;;-2.83;100.00
43701;BME280;58809;47.984;7.964;2023-03-04T05:38:21;97677.59;;;-2.88;100.00
43701;BME280;58809;47.984;7.964;2023-03-04T05:41:23;97668.66;;;-2.99;99.87
43701;BME280;58809;47.984;7.964;2023-03-04T05:44:24;97667.31;;;-3.06;100.00
43701;BME280;58809;47.984;7.964;2023-03-04T05:47:26;97668.66;;;-2.99;100.00
43701;BME280;58809;47.984;7.964;2023-03-04T05:50:27;97658.88;;;-2.94;100.00
43701;BME280;58809;47.984;7.964;2023-03-04T05:53:29;97668.13;;;-2.90;100.00
43701;BME280;58809;47.984;7.964;2023-03-04T05:56:30;97668.13;;;-2.90;100.00
43701;BME280;58809;47.984;7.964;2023-03-04T05:59:33;97675.22;;;-2.93;100.00
43701;BME280;58809;47.984;7.964;2023-03-04T06:02:35;97669.97;;;-2.92;100.00
43701;BME280;58809;47.984;7.964;2023-03-04T06:05:36;97666.88;;;-2.82;100.00
43701;BME280;58809;47.984;7.964;2023-03-04T06:08:38;97683.94;;;-2.78;100.00
43701;BME280;58809;47.984;7.964;2023-03-04T06:11:39;97679.66;;;-2.79;100.00
43701;BME280;58809;47.984;7.964;2023-03-04T06:14:41;97680.69;;;-2.82;100.00
43701;BME280;58809;47.984;7.964;2023-03-04T06:17:42;97671.81;;;-2.78;100.00
43701;BME280;58809;47.984;7.964;2023-03-04T06:20:44;97678.63;;;-2.77;100.00
43701;BME280;58809;47.984;7.964;2023-03-04T06:23:45;97693.63;;;-2.82;99.37
43701;BME280;58809;47.984;7.964;2023-03-04T06:26:47;97683.28;;;-2.82;99.35
43701;BME280;58809;47.984;7.964;2023-03-04T06:29:48;97688.25;;;-2.79;100.00
43701;BME280;58809;47.984;7.964;2023-03-04T06:32:50;97698.09;;;-2.69;100.00
43701;BME280;58809;47.984;7.964;2023-03-04T06:35:54;97692.84;;;-2.68;99.53
43701;BME280;58809;47.984;7.964;2023-03-04T06:38:56;97702.09;;;-2.64;99.64
43701;BME280;58809;47.984;7.964;2023-03-04T06:41:57;97695.94;;;-2.61;99.56
43701;BME280;58809;47.984;7.964;2023-03-04T06:44:59;97703.25;;;-2.54;99.51
43701;BME280;58809;47.984;7.964;2023-03-04T06:48:00;97697.63;;;-2.46;99.34
43701;BME280;58809;47.984;7.964;2023-03-04T06:51:06;97698.03;;;-2.38;98.87
43701;BME280;58809;47.984;7.964;2023-03-04T06:54:08;97699.53;;;-2.34;99.52
43701;BME280;58809;47.984;7.964;2023-03-04T06:57:09;97703.16;;;-2.22;99.38
43701;BME280;58809;47.984;7.964;2023-03-04T07:00:11;97709.41;;;-2.10;98.83
43701;BME280;58809;47.984;7.964;2023-03-04T07:03:12;97711.81;;;-2.07;98.00
43701;BME280;58809;47.984;7.964;2023-03-04T07:06:15;97719.22;;;-2.01;98.17
43701;BME280;58809;47.984;7.964;2023-03-04T07:09:17;97720.91;;;-1.85;97.28
43701;BME280;58809;47.984;7.964;2023-03-04T07:12:19;97725.09;;;-1.83;96.45
43701;BME280;58809;47.984;7.964;2023-03-04T07:15:20;97730.56;;;-1.73;96.82
43701;BME280;58809;47.984;7.964;2023-03-04T07:18:21;97723.19;;;-1.65;96.69
43701;BME280;58809;47.984;7.964;2023-03-04T07:21:23;97730.41;;;-1.56;96.67
43701;BME280;58809;47.984;7.964;2023-03-04T07:24:24;97736.59;;;-1.44;97.18
43701;BME280;58809;47.984;7.964;2023-03-04T07:27:26;97730.47;;;-1.28;96.28
43701;BME280;58809;47.984;7.964;2023-03-04T07:30:27;97736.88;;;-1.20;95.99
43701;BME280;58809;47.984;7.964;2023-03-04T07:33:29;97736.66;;;-1.02;96.95
43701;BME280;58809;47.984;7.964;2023-03-04T07:36:30;97736.09;;;-0.93;96.83
43701;BME280;58809;47.984;7.964;2023-03-04T07:39:32;97737.75;;;-0.92;97.87
43701;BME280;58809;47.984;7.964;2023-03-04T07:42:33;97728.84;;;-0.88;98.36
43701;BME280;58809;47.984;7.964;2023-03-04T07:45:40;97736.91;;;-0.92;99.37
43701;BME280;58809;47.984;7.964;2023-03-04T07:48:41;97745.44;;;-0.90;100.00
43701;BME280;58809;47.984;7.964;2023-03-04T07:51:43;97750.16;;;-0.83;100.00
43701;BME280;58809;47.984;7.964;2023-03-04T07:54:44;97747.84;;;-0.73;100.00
43701;BME280;58809;47.984;7.964;2023-03-04T07:57:46;97751.72;;;-0.66;100.00
43701;BME280;58809;47.984;7.964;2023-03-04T08:00:47;97752.13;;;-0.59;100.00
43701;BME280;58809;47.984;7.964;2023-03-04T08:03:49;97753.50;;;-0.53;100.00
43701;BME280;58809;47.984;7.964;2023-03-04T08:06:50;97760.38;;;-0.52;100.00
43701;BME280;58809;47.984;7.964;2023-03-04T08:09:52;97760.97;;;-0.34;100.00
43701;BME280;58809;47.984;7.964;2023-03-04T08:12:53;97762.69;;;-0.08;100.00
43701;BME280;58809;47.984;7.964;2023-03-04T08:15:55;97762.72;;;0.05;100.00
43701;BME280;58809;47.984;7.964;2023-03-04T08:18:57;97755.91;;;0.30;99.81
43701;BME280;58809;47.984;7.964;2023-03-04T08:21:59;97767.97;;;0.44;97.52
43701;BME280;58809;47.984;7.964;2023-03-04T08:25:00;97758.72;;;0.40;98.36
43701;BME280;58809;47.984;7.964;2023-03-04T08:28:02;97757.66;;;0.55;99.03
43701;BME280;58809;47.984;7.964;2023-03-04T08:31:03;97758.06;;;0.74;99.76
43701;BME280;58809;47.984;7.964;2023-03-04T08:34:05;97753.63;;;1.01;98.97
43701;BME280;58809;47.984;7.964;2023-03-04T08:37:07;97751.78;;;1.03;97.68
43701;BME280;58809;47.984;7.964;2023-03-04T08:40:09;97753.81;;;1.23;98.82
43701;BME280;58809;47.984;7.964;2023-03-04T08:43:11;97759.69;;;1.14;95.51
43701;BME280;58809;47.984;7.964;2023-03-04T08:46:12;97766.47;;;1.04;98.05
43701;BME280;58809;47.984;7.964;2023-03-04T08:49:14;97762.84;;;0.93;99.26
43701;BME280;58809;47.984;7.964;2023-03-04T08:52:15;97773.06;;;0.84;98.98
43701;BME280;58809;47.984;7.964;2023-03-04T08:55:16;97768.88;;;1.07;100.00
43701;BME280;58809;47.984;7.964;2023-03-04T08:58:18;97767.69;;;1.11;96.86
43701;BME280;58809;47.984;7.964;2023-03-04T09:01:20;97789.09;;;1.03;97.55
43701;BME280;58809;47.984;7.964;2023-03-04T09:04:21;97783.06;;;1.03;97.78
43701;BME280;58809;47.984;7.964;2023-03-04T09:07:23;97782.38;;;1.25;99.18
43701;BME280;58809;47.984;7.964;2023-03-04T09:10:24;97790.00;;;1.52;97.35
43701;BME280;58809;47.984;7.964;2023-03-04T09:13:27;97785.59;;;1.65;95.62
43701;BME280;58809;47.984;7.964;2023-03-04T09:16:29;97788.03;;;1.80;94.30
43701;BME280;58809;47.984;7.964;2023-03-04T09:19:31;97785.19;;;1.83;93.51
43701;BME280;58809;47.984;7.964;2023-03-04T09:22:32;97785.81;;;1.98;92.36
43701;BME280;58809;47.984;7.964;2023-03-04T09:25:34;97787.56;;;2.21;92.46
43701;BME280;58809;47.984;7.964;2023-03-04T09:28:35;97785.38;;;2.50;91.18
43701;BME280;58809;47.984;7.964;2023-03-04T09:31:37;97786.94;;;2.53;89.10
43701;BME280;58809;47.984;7.964;2023-03-04T09:34:38;97791.38;;;2.64;88.11
43701;BME280;58809;47.984;7.964;2023-03-04T09:37:40;97788.63;;;2.65;87.68
43701;BME280;58809;47.984;7.964;2023-03-04T09:40:43;97783.75;;;2.83;88.61
43701;BME280;58809;47.984;7.964;2023-03-04T09:43:45;97781.63;;;3.11;87.00
43701;BME280;58809;47.984;7.964;2023-03-04T09:46:47;97783.50;;;3.20;86.21
43701;BME280;58809;47.984;7.964;2023-03-04T09:49:54;97786.13;;;3.32;84.64
43701;BME280;58809;47.984;7.964;2023-03-04T09:53:03;97784.44;;;3.42;83.42
43701;BME280;58809;47.984;7.964;2023-03-04T09:56:06;97780.28;;;3.39;83.29
43701;BME280;58809;47.984;7.964;2023-03-04T09:59:16;97779.44;;;3.50;83.81
43701;BME280;58809;47.984;7.964;2023-03-04T10:05:49;97782.53;;;3.44;81.03
43701;BME280;58809;47.984;7.964;2023-03-04T10:09:10;97777.56;;;3.41;81.88
43701;BME280;58809;47.984;7.964;2023-03-04T10:12:14;97779.19;;;3.53;81.68
43701;BME280;58809;47.984;7.964;2023-03-04T10:19:14;97772.59;;;3.15;83.70
43701;BME280;58809;47.984;7.964;2023-03-04T10:22:18;97770.94;;;3.14;84.79
43701;BME280;58809;47.984;7.964;2023-03-04T10:28:25;97770.94;;;2.80;85.04
43701;BME280;58809;47.984;7.964;2023-03-04T10:31:31;97774.72;;;2.76;85.37
43701;BME280;58809;47.984;7.964;2023-03-04T10:34:35;97775.81;;;2.85;85.70
43701;BME280;58809;47.984;7.964;2023-03-04T10:37:44;97766.78;;;2.89;84.92
43701;BME280;58809;47.984;7.964;2023-03-04T10:40:45;97764.16;;;3.00;84.35
43701;BME280;58809;47.984;7.964;2023-03-04T10:47:10;97759.91;;;2.88;85.63
43701;BME280;58809;47.984;7.964;2023-03-04T10:50:20;97768.78;;;3.19;85.01
43701;BME280;58809;47.984;7.964;2023-03-04T10:53:29;97757.28;;;2.99;83.12
43701;BME280;58809;47.984;7.964;2023-03-04T11:02:42;97759.97;;;2.41;88.23
43701;BME280;58809;47.984;7.964;2023-03-04T11:05:43;97753.59;;;2.57;87.25
43701;BME280;58809;47.984;7.964;2023-03-04T11:08:52;97754.53;;;2.67;87.25
43701;BME280;58809;47.984;7.964;2023-03-04T11:11:54;97756.06;;;2.58;85.95
43701;BME280;58809;47.984;7.964;2023-03-04T11:14:56;97755.50;;;2.55;87.76
43701;BME280;58809;47.984;7.964;2023-03-04T11:18:05;97753.31;;;2.37;88.05
43701;BME280;58809;47.984;7.964;2023-03-04T11:21:14;97750.69;;;2.37;90.10
43701;BME280;58809;47.984;7.964;2023-03-04T11:24:27;97739.06;;;2.53;88.81
43701;BME280;58809;47.984;7.964;2023-03-04T11:30:42;97729.13;;;2.92;87.14
43701;BME280;58809;47.984;7.964;2023-03-04T11:37:34;97721.97;;;3.05;85.12
43701;BME280;58809;47.984;7.964;2023-03-04T11:40:38;97719.69;;;3.00;84.02
43701;BME280;58809;47.984;7.964;2023-03-04T11:43:42;97719.56;;;3.13;83.30
43701;BME280;58809;47.984;7.964;2023-03-04T11:46:53;97714.47;;;3.00;82.96
43701;BME280;58809;47.984;7.964;2023-03-04T11:50:15;97713.41;;;3.14;82.57
43701;BME280;58809;47.984;7.964;2023-03-04T11:56:43;97695.88;;;3.37;81.04
43701;BME280;58809;47.984;7.964;2023-03-04T11:59:48;97690.59;;;3.49;80.82
43701;BME280;58809;47.984;7.964;2023-03-04T12:06:17;97682.84;;;4.00;80.93
43701;BME280;58809;47.984;7.964;2023-03-04T12:12:56;97668.69;;;3.82;77.10
43701;BME280;58809;47.984;7.964;2023-03-04T12:22:45;97659.81;;;4.46;76.45
43701;BME280;58809;47.984;7.964;2023-03-04T12:38:37;97631.41;;;5.01;73.34
43701;BME280;58809;47.984;7.964;2023-03-04T12:44:52;97633.34;;;4.90;71.90
43701;BME280;58809;47.984;7.964;2023-03-04T12:51:16;97627.09;;;4.91;73.83
43701;BME280;58809;47.984;7.964;2023-03-04T12:54:31;97623.00;;;5.08;73.63
43701;BME280;58809;47.984;7.964;2023-03-04T12:57:35;97621.78;;;5.12;73.12
43701;BME280;58809;47.984;7.964;2023-03-04T13:04:04;97612.13;;;5.42;72.35
43701;BME280;58809;47.984;7.964;2023-03-04T13:07:14;97614.31;;;5.56;72.10
43701;BME280;58809;47.984;7.964;2023-03-04T13:10:18;97610.00;;;5.74;71.07
43701;BME280;58809;47.984;7.964;2023-03-04T13:13:39;97601.97;;;5.86;71.19
43701;BME280;58809;47.984;7.964;2023-03-04T13:16:49;97610.53;;;6.07;70.32
43701;BME280;58809;47.984;7.964;2023-03-04T13:19:57;97599.63;;;6.02;69.88
43701;BME280;58809;47.984;7.964;2023-03-04T13:23:22;97593.69;;;5.90;69.90
43701;BME280;58809;47.984;7.964;2023-03-04T13:26:30;97591.75;;;5.92;70.11
43701;BME280;58809;47.984;7.964;2023-03-04T13:29:33;97590.69;;;6.23;70.88
43701;BME280;58809;47.984;7.964;2023-03-04T13:32:35;97591.81;;;6.58;68.50
43701;BME280;58809;47.984;7.964;2023-03-04T13:38:56;97593.59;;;6.57;68.47
43701;BME280;58809;47.984;7.964;2023-03-04T13:41:58;97582.53;;;6.81;68.33
43701;BME280;58809;47.984;7.964;2023-03-04T13:44:59;97580.44;;;6.85;66.94
43701;BME280;58809;47.984;7.964;2023-03-04T13:48:07;97580.25;;;6.68;67.36
43701;BME280;58809;47.984;7.964;2023-03-04T13:51:25;97576.19;;;6.74;68.10
43701;BME280;58809;47.984;7.964;2023-03-04T13:54:31;97578.56;;;6.95;66.98
43701;BME280;58809;47.984;7.964;2023-03-04T13:57:33;97578.97;;;7.18;66.06
43701;BME280;58809;47.984;7.964;2023-03-04T14:00:36;97574.38;;;7.20;64.73
43701;BME280;58809;47.984;7.964;2023-03-04T14:03:44;97575.56;;;7.44;64.07
43701;BME280;58809;47.984;7.964;2023-03-04T14:06:49;97569.44;;;7.61;63.56
43701;BME280;58809;47.984;7.964;2023-03-04T14:09:53;97569.28;;;7.63;62.77
43701;BME280;58809;47.984;7.964;2023-03-04T14:12:55;97569.97;;;7.65;63.65
43701;BME280;58809;47.984;7.964;2023-03-04T14:15:58;97569.81;;;8.45;60.95
43701;BME280;58809;47.984;7.964;2023-03-04T14:19:00;97563.72;;;9.12;58.04
43701;BME280;58809;47.984;7.964;2023-03-04T14:22:02;97553.84;;;9.38;57.88
43701;BME280;58809;47.984;7.964;2023-03-04T14:25:06;97555.31;;;9.16;58.46
43701;BME280;58809;47.984;7.964;2023-03-04T14:28:19;97545.53;;;8.76;58.29
43701;BME280;58809;47.984;7.964;2023-03-04T14:31:21;97549.22;;;8.22;60.56
43701;BME280;58809;47.984;7.964;2023-03-04T14:34:25;97545.84;;;8.04;61.23
43701;BME280;58809;47.984;7.964;2023-03-04T14:37:34;97541.94;;;8.08;60.67
43701;BME280;58809;47.984;7.964;2023-03-04T14:40:40;97542.16;;;7.97;61.29
43701;BME280;58809;47.984;7.964;2023-03-04T14:43:46;97539.53;;;7.97;61.05
43701;BME280;58809;47.984;7.964;2023-03-04T14:46:49;97529.06;;;8.13;60.61
43701;BME280;58809;47.984;7.964;2023-03-04T14:50:15;97535.13;;;8.40;60.50
43701;BME280;58809;47.984;7.964;2023-03-04T14:53:19;97532.28;;;8.59;59.79
43701;BME280;58809;47.984;7.964;2023-03-04T14:56:27;97529.66;;;8.59;58.93
43701;BME280;58809;47.984;7.964;2023-03-04T14:59:33;97533.66;;;8.37;58.28
43701;BME280;58809;47.984;7.964;2023-03-04T15:02:37;97536.09;;;8.39;59.20
43701;BME280;58809;47.984;7.964;2023-03-04T15:05:38;97533.97;;;8.34;58.36
43701;BME280;58809;47.984;7.964;2023-03-04T15:08:40;97526.22;;;8.33;57.77
43701;BME280;58809;47.984;7.964;2023-03-04T15:11:46;97528.78;;;8.16;57.13
43701;BME280;58809;47.984;7.964;2023-03-04T15:14:50;97530.75;;;8.48;57.27
43701;BME280;58809;47.984;7.964;2023-03-04T15:17:59;97527.06;;;8.41;56.46
43701;BME280;58809;47.984;7.964;2023-03-04T15:21:23;97521.59;;;8.35;56.13
43701;BME280;58809;47.984;7.964;2023-03-04T15:24:25;97519.97;;;8.34;56.07
43701;BME280;58809;47.984;7.964;2023-03-04T15:27:27;97523.63;;;8.41;54.84
43701;BME280;58809;47.984;7.964;2023-03-04T15:30:31;97520.06;;;8.58;53.97
43701;BME280;58809;47.984;7.964;2023-03-04T15:33:34;97523.72;;;8.65;54.41
43701;BME280;58809;47.984;7.964;2023-03-04T15:36:36;97511.34;;;8.66;54.16
43701;BME280;58809;47.984;7.964;2023-03-04T15:39:37;97522.91;;;8.65;54.28
43701;BME280;58809;47.984;7.964;2023-03-04T15:42:39;97522.41;;;8.70;53.54
43701;BME280;58809;47.984;7.964;2023-03-04T15:45:40;97525.06;;;8.86;51.98
43701;BME280;58809;47.984;7.964;2023-03-04T15:48:42;97518.47;;;8.90;52.28
43701;BME280;58809;47.984;7.964;2023-03-04T15:51:43;97521.16;;;9.15;50.55
43701;BME280;58809;47.984;7.964;2023-03-04T15:54:45;97520.81;;;9.26;51.33
43701;BME280;58809;47.984;7.964;2023-03-04T15:57:49;97524.47;;;9.25;51.04
43701;BME280;58809;47.984;7.964;2023-03-04T16:00:53;97522.47;;;9.02;51.12
43701;BME280;58809;47.984;7.964;2023-03-04T16:03:54;97530.56;;;8.42;53.05
43701;BME280;58809;47.984;7.964;2023-03-04T16:06:56;97531.03;;;8.03;54.56
43701;BME280;58809;47.984;7.964;2023-03-04T16:10:03;97525.84;;;7.67;55.03
43701;BME280;58809;47.984;7.964;2023-03-04T16:13:05;97529.16;;;7.25;56.56
43701;BME280;58809;47.984;7.964;2023-03-04T16:16:13;97522.72;;;6.83;57.76
43701;BME280;58809;47.984;7.964;2023-03-04T16:19:14;97527.72;;;6.59;58.54
43701;BME280;58809;47.984;7.964;2023-03-04T16:22:16;97523.28;;;6.41;59.17
43701;BME280;58809;47.984;7.964;2023-03-04T16:25:19;97531.84;;;6.43;59.28
43701;BME280;58809;47.984;7.964;2023-03-04T16:28:21;97524.97;;;6.32;60.10
43701;BME280;58809;47.984;7.964;2023-03-04T16:31:23;97531.88;;;6.33;60.23
43701;BME280;58809;47.984;7.964;2023-03-04T16:34:24;97525.59;;;6.16;60.27
43701;BME280;58809;47.984;7.964;2023-03-04T16:37:25;97529.38;;;5.94;61.39
43701;BME280;58809;47.984;7.964;2023-03-04T16:40:28;97519.75;;;5.85;61.30
43701;BME280;58809;47.984;7.964;2023-03-04T16:43:30;97525.47;;;5.61;62.31
43701;BME280;58809;47.984;7.964;2023-03-04T16:46:32;97527.84;;;5.54;62.49
43701;BME280;58809;47.984;7.964;2023-03-04T16:49:33;97533.53;;;5.50;62.73
43701;BME280;58809;47.984;7.964;2023-03-04T16:52:34;97533.94;;;5.16;63.77
43701;BME280;58809;47.984;7.964;2023-03-04T16:55:36;97530.50;;;4.86;64.45
43701;BME280;58809;47.984;7.964;2023-03-04T16:58:38;97540.81;;;4.78;64.98
43701;BME280;58809;47.984;7.964;2023-03-04T17:01:39;97537.91;;;4.61;65.18
43701;BME280;58809;47.984;7.964;2023-03-04T17:04:41;97545.47;;;4.45;65.85
43701;BME280;58809;47.984;7.964;2023-03-04T17:07:42;97543.88;;;4.23;66.62
43701;BME280;58809;47.984;7.964;2023-03-04T17:10:44;97548.78;;;4.07;67.23
43701;BME280;58809;47.984;7.964;2023-03-04T17:13:45;97550.66;;;3.95;66.45
43701;BME280;58809;47.984;7.964;2023-03-04T17:16:47;97553.38;;;3.83;67.79
43701;BME280;58809;47.984;7.964;2023-03-04T17:19:48;97567.03;;;3.66;67.84
43701;BME280;58809;47.984;7.964;2023-03-04T17:22:50;97570.81;;;3.52;68.46
43701;BME280;58809;47.984;7.964;2023-03-04T17:25:56;97569.47;;;3.37;69.19
43701;BME280;58809;47.984;7.964;2023-03-04T17:28:57;97574.75;;;3.25;69.29
43701;BME280;58809;47.984;7.964;2023-03-04T17:31:59;97577.19;;;3.17;69.90
43701;BME280;58809;47.984;7.964;2023-03-04T17:35:00;97574.56;;;3.17;69.66